LYBE/BEG METAR and TAF weather

Enter ICAO airport designator
Station Type Date Time Source
LYBE METAR 2018/08/14 10:00 UTC NOAA

LYBE 141000Z 16004KT 110V220 CAVOK 31/18 Q1012 NOSIG


Station Type Date Time Source
LYBE Decoded METAR 2018/08/14 10:00 UTC NOAA

Beograd / Surcin, Serbia and Montenegro (LYBE) 44-49N 020-17E 99M
Aug 14, 2018 - 06:00 AM EDT / 2018.08.14 1000 UTC
Wind: from the SSE (160 degrees) at 5 MPH (4 KT) (direction variable):0
Visibility: greater than 7 mile(s):0
Temperature: 87 F (31 C)
Dew Point: 64 F (18 C)
Relative Humidity: 45%
Pressure (altimeter): 29.88 in. Hg (1012 hPa)
ob: LYBE 141000Z 16004KT 110V220 CAVOK 31/18 Q1012 NOSIG
cycle: 10

Station Type Date Time Source
LYBE TAF 2018/08/14 06:21 UTC NOAA

TAF TAF LYBE 140500Z 1406/1506 13006KT 9999 SCT040 TX33/1413Z TN20/1503Z
TEMPO 1409/1412 14016KT
TEMPO 1412/1422 VRB15G25KT 5000 TSRA SCT033CB SCT040
BECMG 1422/1424 34010KT


Example: see airport list